createdAt,value
2018-07-29T00:00:22.202Z,2.00
2018-07-29T00:02:51.193Z,1.80
2018-07-29T00:05:20.219Z,2.30
2018-07-29T00:07:49.206Z,2.40
2018-07-29T00:10:18.231Z,2.07
2018-07-29T00:12:47.409Z,2.13
2018-07-29T00:15:16.397Z,2.00
2018-07-29T00:17:45.392Z,1.90
2018-07-29T00:20:14.346Z,2.00
2018-07-29T00:22:43.312Z,1.93
2018-07-29T00:25:12.372Z,1.90
2018-07-29T00:27:41.363Z,2.40
2018-07-29T00:30:10.373Z,1.80
2018-07-29T00:32:39.557Z,2.00
2018-07-29T00:35:08.548Z,2.20
2018-07-29T00:37:37.541Z,1.90
2018-07-29T00:40:06.739Z,1.93
2018-07-29T00:42:35.713Z,2.00
2018-07-29T00:45:05.593Z,2.00
2018-07-29T00:47:34.955Z,1.80
2018-07-29T00:50:04.393Z,1.77
2018-07-29T00:52:33.407Z,1.80
2018-07-29T00:55:02.543Z,1.90
2018-07-29T00:57:31.571Z,2.00
2018-07-29T01:00:00.591Z,2.13
2018-07-29T01:02:29.600Z,2.03
2018-07-29T01:04:58.609Z,2.03
2018-07-29T01:07:27.593Z,1.93
2018-07-29T01:09:56.578Z,1.80
2018-07-29T01:12:25.594Z,2.03
2018-07-29T01:14:54.589Z,1.83
2018-07-29T01:17:23.656Z,2.10
2018-07-29T01:19:52.642Z,2.00
2018-07-29T01:22:21.628Z,1.90
2018-07-29T01:24:50.650Z,1.70
2018-07-29T01:27:19.378Z,1.97
2018-07-29T01:29:48.271Z,1.90
2018-07-29T01:32:17.256Z,2.00
2018-07-29T01:34:46.280Z,2.00
2018-07-29T01:37:15.276Z,1.90
2018-07-29T01:39:44.236Z,2.20
2018-07-29T01:42:13.312Z,1.70
2018-07-29T01:44:42.306Z,2.00
2018-07-29T01:47:11.332Z,1.97
2018-07-29T01:49:40.334Z,2.17
2018-07-29T01:52:09.322Z,1.90
2018-07-29T01:54:38.309Z,2.23
2018-07-29T01:57:07.350Z,1.77
2018-07-29T01:59:36.100Z,2.13
2018-07-29T02:02:05.030Z,2.10
2018-07-29T02:04:34.004Z,1.90
2018-07-29T02:07:03.026Z,1.93
2018-07-29T02:09:32.052Z,1.90
2018-07-29T02:12:01.050Z,1.80
2018-07-29T02:14:30.034Z,2.00
2018-07-29T02:16:59.070Z,1.80
2018-07-29T02:19:28.131Z,2.13
2018-07-29T02:21:57.123Z,1.70
2018-07-29T02:24:26.120Z,1.57
2018-07-29T02:26:55.201Z,1.80
2018-07-29T02:29:24.207Z,1.80
2018-07-29T02:31:53.203Z,1.87
2018-07-29T02:34:22.201Z,1.80
2018-07-29T02:36:51.470Z,1.80
2018-07-29T02:39:20.852Z,1.77
2018-07-29T02:41:49.899Z,1.80
2018-07-29T02:44:18.911Z,1.87
2018-07-29T02:46:47.927Z,1.90
2018-07-29T02:49:16.885Z,1.80
2018-07-29T02:51:45.873Z,1.70
2018-07-29T02:54:14.877Z,1.60
2018-07-29T02:56:43.876Z,1.80
2018-07-29T02:59:12.900Z,1.80
2018-07-29T03:01:41.846Z,1.60
2018-07-29T03:04:10.857Z,1.87
2018-07-29T03:06:39.914Z,1.80
2018-07-29T03:09:09.545Z,2.17
2018-07-29T03:11:38.773Z,2.00
2018-07-29T03:14:08.108Z,1.70
2018-07-29T03:16:37.125Z,1.90
2018-07-29T03:19:06.313Z,1.80
2018-07-29T03:21:35.285Z,1.93
2018-07-29T03:24:04.309Z,1.90
2018-07-29T03:26:33.337Z,1.77
2018-07-29T03:29:02.373Z,1.93
2018-07-29T03:31:31.437Z,1.90
2018-07-29T03:34:00.505Z,2.27
2018-07-29T03:36:29.507Z,1.80
2018-07-29T03:38:58.497Z,2.00
2018-07-29T03:41:27.521Z,2.10
2018-07-29T03:43:56.577Z,2.27
2018-07-29T03:46:25.627Z,2.03
2018-07-29T03:48:55.037Z,2.00
2018-07-29T03:51:24.023Z,1.90
2018-07-29T03:53:53.005Z,2.13
2018-07-29T03:56:22.547Z,2.40
2018-07-29T03:58:51.817Z,2.23
2018-07-29T04:01:20.821Z,2.17
2018-07-29T04:03:49.901Z,2.20
2018-07-29T04:06:19.115Z,2.23
2018-07-29T04:08:48.099Z,2.57
2018-07-29T04:11:17.061Z,2.40
2018-07-29T04:13:46.024Z,2.47
2018-07-29T04:16:33.731Z,2.60
2018-07-29T04:19:06.507Z,2.40
2018-07-29T04:21:37.685Z,2.57
2018-07-29T04:24:07.565Z,2.57
2018-07-29T04:26:37.069Z,2.60
2018-07-29T04:29:06.270Z,2.80
2018-07-29T04:31:35.272Z,2.80
2018-07-29T04:34:04.271Z,3.00
2018-07-29T04:36:33.302Z,2.93
2018-07-29T04:39:02.346Z,3.03
2018-07-29T04:41:31.336Z,2.97
2018-07-29T04:44:00.341Z,2.70
2018-07-29T04:46:29.328Z,2.50
2018-07-29T04:48:58.382Z,3.17
2018-07-29T04:51:27.475Z,2.93
2018-07-29T04:53:56.428Z,2.80
2018-07-29T04:56:25.445Z,2.93
2018-07-29T04:58:54.550Z,2.70
2018-07-29T05:01:23.618Z,3.00
2018-07-29T05:03:52.686Z,2.70
2018-07-29T05:06:21.704Z,2.73
2018-07-29T05:08:50.870Z,3.00
2018-07-29T05:11:22.582Z,2.90
2018-07-29T05:13:52.620Z,3.00
2018-07-29T05:16:21.832Z,2.77
2018-07-29T05:18:51.185Z,2.60
2018-07-29T05:21:20.426Z,3.00
2018-07-29T05:23:49.840Z,2.97
2018-07-29T05:26:18.948Z,2.50
2018-07-29T05:28:47.982Z,2.40
2018-07-29T05:31:17.416Z,2.47
2018-07-29T05:33:47.012Z,2.93
2018-07-29T05:36:16.150Z,2.67
2018-07-29T05:38:45.194Z,2.20
2018-07-29T05:41:14.212Z,2.37
2018-07-29T05:43:43.200Z,2.50
2018-07-29T05:46:12.726Z,2.43
2018-07-29T05:48:41.748Z,2.37
2018-07-29T05:51:10.730Z,2.20
2018-07-29T05:53:43.072Z,2.20
2018-07-29T05:56:12.095Z,2.30
2018-07-29T05:58:41.102Z,2.57
2018-07-29T06:01:10.126Z,2.50
2018-07-29T06:03:39.119Z,2.60
2018-07-29T06:06:08.256Z,2.60
2018-07-29T06:08:37.375Z,2.43
2018-07-29T06:11:06.658Z,2.10
2018-07-29T06:13:35.700Z,2.23
2018-07-29T06:16:04.680Z,2.70
2018-07-29T06:18:33.713Z,2.47
2018-07-29T06:21:02.698Z,2.47
2018-07-29T06:23:31.662Z,2.30
2018-07-29T06:26:00.669Z,2.43
2018-07-29T06:28:29.724Z,2.60
2018-07-29T06:30:58.745Z,2.13
2018-07-29T06:33:27.781Z,2.13
2018-07-29T06:35:56.770Z,2.33
2018-07-29T06:38:25.798Z,2.53
2018-07-29T06:40:54.932Z,2.63
2018-07-29T06:43:23.998Z,2.27
2018-07-29T06:45:53.003Z,2.60
2018-07-29T06:48:22.029Z,2.40
2018-07-29T06:50:51.211Z,2.10
2018-07-29T06:53:20.047Z,2.10
2018-07-29T06:55:49.071Z,2.00
2018-07-29T06:58:18.085Z,2.30
2018-07-29T07:00:47.080Z,2.07
2018-07-29T07:03:16.069Z,2.07
2018-07-29T07:05:45.077Z,1.90
2018-07-29T07:08:14.037Z,2.03
2018-07-29T07:10:43.073Z,2.20
2018-07-29T07:13:12.109Z,1.90
2018-07-29T07:15:41.081Z,2.17
2018-07-29T07:18:10.095Z,1.80
2018-07-29T07:20:39.153Z,1.80
2018-07-29T07:23:08.251Z,1.90
2018-07-29T07:25:37.264Z,1.80
2018-07-29T07:28:06.321Z,2.03
2018-07-29T07:30:35.323Z,2.10
2018-07-29T07:33:04.280Z,2.00
2018-07-29T07:35:33.276Z,1.80
2018-07-29T07:38:02.301Z,1.93
2018-07-29T07:40:31.424Z,2.00
2018-07-29T07:43:00.426Z,3.10
2018-07-29T07:45:29.423Z,2.30
2018-07-29T07:47:58.478Z,2.20
2018-07-29T07:50:27.464Z,1.90
2018-07-29T07:52:56.492Z,1.90
2018-07-29T07:55:25.485Z,1.83
2018-07-29T07:57:54.490Z,1.83
2018-07-29T08:00:23.518Z,1.90
2018-07-29T08:02:52.507Z,2.07
2018-07-29T08:05:21.500Z,1.70
2018-07-29T08:07:50.519Z,2.30
2018-07-29T08:10:19.608Z,1.93
2018-07-29T08:12:48.602Z,2.47
2018-07-29T08:15:17.580Z,2.10
2018-07-29T08:17:46.566Z,2.20
2018-07-29T08:20:15.566Z,2.10
2018-07-29T08:22:44.630Z,2.30
2018-07-29T08:25:13.604Z,2.00
2018-07-29T08:27:42.726Z,2.00
2018-07-29T08:30:11.837Z,2.00
2018-07-29T08:32:40.903Z,2.30
2018-07-29T08:35:09.903Z,2.00
2018-07-29T08:37:39.096Z,2.00
2018-07-29T08:40:08.143Z,2.20
2018-07-29T08:42:37.139Z,2.10
2018-07-29T08:45:06.447Z,1.80
2018-07-29T08:47:35.421Z,2.13
2018-07-29T08:50:04.684Z,2.10
2018-07-29T08:52:33.888Z,2.10
2018-07-29T08:55:02.838Z,2.07
2018-07-29T08:57:31.874Z,2.20
2018-07-29T09:00:07.368Z,2.37
2018-07-29T09:02:36.371Z,2.20
2018-07-29T09:05:05.389Z,2.20
2018-07-29T09:07:34.433Z,1.90
2018-07-29T09:10:03.511Z,2.13
2018-07-29T09:12:32.480Z,2.07
2018-07-29T09:15:01.449Z,2.40
2018-07-29T09:17:30.411Z,2.10
2018-07-29T09:19:59.489Z,2.30
2018-07-29T09:22:28.477Z,2.33
2018-07-29T09:24:57.491Z,2.10
2018-07-29T09:27:26.449Z,1.97
2018-07-29T09:29:55.552Z,2.10
2018-07-29T09:32:24.547Z,3.00
2018-07-29T09:34:53.546Z,2.20
2018-07-29T09:37:22.629Z,1.80
2018-07-29T09:39:51.725Z,2.30
2018-07-29T09:42:20.740Z,2.40
2018-07-29T09:44:49.721Z,2.83
2018-07-29T09:47:18.719Z,2.70
2018-07-29T09:49:47.721Z,2.53
2018-07-29T09:52:16.757Z,2.50
2018-07-29T09:54:45.490Z,2.50
2018-07-29T09:57:14.383Z,2.60
2018-07-29T09:59:43.383Z,2.57
2018-07-29T10:02:12.403Z,2.67
2018-07-29T10:04:41.383Z,2.57
2018-07-29T10:07:10.357Z,2.47
2018-07-29T10:09:39.358Z,2.50
2018-07-29T10:12:08.425Z,2.47
2018-07-29T10:14:37.361Z,1.97
2018-07-29T10:17:06.359Z,2.40
2018-07-29T10:19:35.410Z,2.33
2018-07-29T10:22:04.509Z,2.30
2018-07-29T10:24:33.485Z,2.37
2018-07-29T10:27:02.437Z,2.47
2018-07-29T10:29:31.448Z,2.50
2018-07-29T10:32:00.524Z,2.70
2018-07-29T10:34:29.531Z,2.40
2018-07-29T10:36:58.506Z,2.73
2018-07-29T10:39:27.646Z,2.30
2018-07-29T10:41:56.625Z,2.40
2018-07-29T10:44:25.617Z,2.20
2018-07-29T10:46:54.673Z,2.30
2018-07-29T10:49:23.619Z,2.60
2018-07-29T10:51:52.633Z,2.40
2018-07-29T10:54:21.647Z,2.20
2018-07-29T10:56:50.611Z,2.43
2018-07-29T10:59:19.613Z,2.30
2018-07-29T11:01:48.638Z,2.60
2018-07-29T11:04:17.727Z,2.37
2018-07-29T11:06:46.761Z,2.43
2018-07-29T11:09:15.753Z,2.40
2018-07-29T11:11:44.775Z,2.03
2018-07-29T11:14:13.775Z,2.10
2018-07-29T11:16:42.821Z,2.33
2018-07-29T11:19:11.797Z,2.70
2018-07-29T11:21:40.867Z,3.20
2018-07-29T11:24:09.861Z,2.30
2018-07-29T11:26:39.501Z,2.23
2018-07-29T11:29:08.577Z,2.60
2018-07-29T11:31:37.605Z,2.40
2018-07-29T11:34:06.649Z,2.30
2018-07-29T11:36:35.665Z,2.30
2018-07-29T11:39:07.393Z,2.53
2018-07-29T11:41:36.804Z,2.20
2018-07-29T11:44:05.965Z,2.20
2018-07-29T11:46:35.009Z,2.40
2018-07-29T11:49:04.254Z,2.40
2018-07-29T11:51:33.365Z,2.30
2018-07-29T11:54:02.366Z,2.20
2018-07-29T11:56:31.313Z,2.40
2018-07-29T11:59:00.276Z,2.53
2018-07-29T12:01:29.288Z,2.20
2018-07-29T12:03:58.358Z,2.40
2018-07-29T12:06:27.319Z,2.50
2018-07-29T12:08:56.292Z,2.10
2018-07-29T12:11:25.429Z,2.20
2018-07-29T12:13:54.392Z,2.40
2018-07-29T12:16:23.468Z,2.40
2018-07-29T12:18:52.476Z,2.07
2018-07-29T12:21:21.456Z,2.10
2018-07-29T12:23:50.518Z,2.10
2018-07-29T12:26:19.678Z,2.00
2018-07-29T12:28:48.659Z,2.30
2018-07-29T12:31:17.772Z,1.80
2018-07-29T12:33:46.991Z,2.23
2018-07-29T12:36:16.035Z,2.20
2018-07-29T12:38:45.048Z,2.20
2018-07-29T12:41:14.062Z,2.57
2018-07-29T12:43:43.094Z,1.73
2018-07-29T12:46:12.066Z,2.10
2018-07-29T12:48:41.026Z,1.80
2018-07-29T12:51:10.047Z,1.57
2018-07-29T12:53:39.038Z,2.30
2018-07-29T12:56:08.094Z,1.90
2018-07-29T12:58:37.232Z,2.20
2018-07-29T13:01:06.286Z,1.90
2018-07-29T13:03:35.410Z,2.17
2018-07-29T13:06:04.534Z,2.20
2018-07-29T13:08:33.528Z,2.03
2018-07-29T13:11:02.571Z,2.10
2018-07-29T13:13:31.648Z,2.00
2018-07-29T13:16:00.660Z,2.03
2018-07-29T13:18:29.608Z,2.00
2018-07-29T13:20:58.621Z,1.93
2018-07-29T13:23:27.626Z,2.10
2018-07-29T13:25:56.622Z,1.90
2018-07-29T13:28:25.578Z,2.20
2018-07-29T13:30:54.767Z,2.10
2018-07-29T13:33:23.782Z,2.20
2018-07-29T13:35:52.829Z,2.37
2018-07-29T13:38:21.809Z,2.33
2018-07-29T13:40:50.800Z,1.97
2018-07-29T13:43:19.793Z,2.40
2018-07-29T13:45:48.906Z,2.23
2018-07-29T13:48:17.925Z,2.57
2018-07-29T13:50:47.575Z,2.33
2018-07-29T13:53:16.701Z,2.37
2018-07-29T13:55:45.665Z,1.93
2018-07-29T13:58:14.697Z,2.20
2018-07-29T14:00:43.715Z,1.97
2018-07-29T14:03:12.765Z,2.07
2018-07-29T14:05:41.761Z,2.00
2018-07-29T14:08:10.513Z,2.30
2018-07-29T14:10:39.385Z,2.23
2018-07-29T14:13:08.433Z,2.20
2018-07-29T14:15:37.417Z,2.20
2018-07-29T14:18:06.443Z,2.20
2018-07-29T14:20:35.431Z,2.60
2018-07-29T14:23:04.410Z,2.20
2018-07-29T14:25:33.441Z,2.30
2018-07-29T14:28:02.469Z,2.40
2018-07-29T14:30:31.498Z,2.50
2018-07-29T14:33:00.506Z,2.23
2018-07-29T14:35:29.508Z,2.40
2018-07-29T14:37:58.468Z,2.40
2018-07-29T14:40:27.434Z,2.20
2018-07-29T14:42:56.429Z,2.43
2018-07-29T14:45:25.499Z,2.40
2018-07-29T14:47:54.652Z,2.70
2018-07-29T14:50:23.661Z,2.30
2018-07-29T14:52:52.736Z,2.40
2018-07-29T14:55:21.844Z,2.47
2018-07-29T14:57:50.825Z,2.10
2018-07-29T15:00:19.901Z,2.20
2018-07-29T15:02:48.868Z,2.23
2018-07-29T15:05:18.381Z,2.43
2018-07-29T15:07:47.380Z,2.33
2018-07-29T15:10:25.946Z,2.37
2018-07-29T15:12:55.445Z,2.37
2018-07-29T15:15:24.427Z,2.50
2018-07-29T15:17:53.216Z,2.70
2018-07-29T15:20:22.089Z,2.23
2018-07-29T15:22:51.254Z,2.40
2018-07-29T15:25:20.518Z,2.63
2018-07-29T15:27:49.900Z,2.27
2018-07-29T15:30:18.608Z,2.43
2018-07-29T15:32:47.552Z,2.80
2018-07-29T15:35:16.672Z,2.23
2018-07-29T15:37:45.618Z,2.50
2018-07-29T15:40:14.611Z,2.50
2018-07-29T15:42:43.588Z,2.40
2018-07-29T15:45:12.600Z,2.47
2018-07-29T15:47:41.580Z,2.50
2018-07-29T15:50:10.620Z,2.40
2018-07-29T15:52:39.696Z,2.37
2018-07-29T15:55:08.748Z,2.47
2018-07-29T15:57:37.738Z,2.50
2018-07-29T16:00:09.258Z,2.30
2018-07-29T16:02:38.311Z,2.47
2018-07-29T16:05:07.396Z,2.30
2018-07-29T16:07:36.388Z,2.10
2018-07-29T16:10:05.631Z,2.40
2018-07-29T16:12:34.635Z,2.30
2018-07-29T16:15:04.172Z,2.60
2018-07-29T16:17:33.162Z,2.40
2018-07-29T16:20:02.280Z,2.30
2018-07-29T16:22:31.258Z,2.40
2018-07-29T16:25:00.250Z,2.57
2018-07-29T16:27:29.275Z,2.47
2018-07-29T16:29:58.514Z,2.37
2018-07-29T16:32:27.754Z,2.50
2018-07-29T16:34:56.791Z,2.40
2018-07-29T16:37:25.950Z,2.40
2018-07-29T16:39:54.951Z,2.70
2018-07-29T16:42:24.022Z,2.30
2018-07-29T16:44:53.134Z,2.27
2018-07-29T16:47:22.230Z,2.50
2018-07-29T16:49:51.221Z,2.60
2018-07-29T16:52:20.221Z,2.13
2018-07-29T16:54:49.314Z,2.40
2018-07-29T16:57:18.362Z,2.57
2018-07-29T16:59:47.357Z,2.20
2018-07-29T17:02:16.370Z,2.27
2018-07-29T17:04:45.407Z,2.20
2018-07-29T17:07:14.425Z,2.30
2018-07-29T17:09:43.573Z,2.20
2018-07-29T17:12:12.529Z,2.37
2018-07-29T17:14:41.621Z,2.30
2018-07-29T17:17:10.645Z,2.47
2018-07-29T17:19:39.726Z,2.50
2018-07-29T17:22:08.705Z,2.47
2018-07-29T17:24:37.705Z,2.47
2018-07-29T17:27:06.739Z,2.50
2018-07-29T17:29:35.701Z,2.30
2018-07-29T17:32:04.748Z,2.23
2018-07-29T17:34:33.797Z,2.53
2018-07-29T17:37:02.817Z,2.50
2018-07-29T17:39:31.834Z,2.20
2018-07-29T17:42:00.958Z,2.70
2018-07-29T17:44:30.268Z,2.70
2018-07-29T17:46:59.696Z,2.53
2018-07-29T17:49:28.737Z,2.33
2018-07-29T17:51:57.790Z,2.60
2018-07-29T17:54:26.788Z,2.47
2018-07-29T17:56:56.001Z,2.57
2018-07-29T17:59:24.995Z,2.10
2018-07-29T18:01:53.966Z,2.40
2018-07-29T18:04:22.992Z,2.40
2018-07-29T18:06:52.009Z,2.40
2018-07-29T18:09:21.017Z,2.53
2018-07-29T18:11:50.061Z,2.50
2018-07-29T18:14:19.102Z,2.50
2018-07-29T18:16:48.185Z,2.30
2018-07-29T18:19:17.181Z,2.50
2018-07-29T18:21:46.257Z,2.50
2018-07-29T18:24:15.317Z,2.60
2018-07-29T18:26:44.373Z,2.30
2018-07-29T18:29:13.397Z,2.37
2018-07-29T18:31:42.409Z,2.40
2018-07-29T18:34:11.530Z,2.27
2018-07-29T18:36:40.478Z,2.50
2018-07-29T18:39:10.274Z,2.50
2018-07-29T18:41:39.504Z,2.83
2018-07-29T18:44:08.532Z,3.00
2018-07-29T18:46:37.535Z,3.07
2018-07-29T18:49:06.627Z,2.80
2018-07-29T18:51:35.624Z,2.60
2018-07-29T18:54:04.679Z,2.70
2018-07-29T18:56:33.758Z,3.17
2018-07-29T18:59:02.767Z,3.10
2018-07-29T19:01:31.772Z,3.07
2018-07-29T19:04:00.808Z,2.60
2018-07-29T19:06:29.899Z,3.10
2018-07-29T19:08:58.854Z,3.27
2018-07-29T19:11:27.893Z,2.97
2018-07-29T19:13:56.902Z,3.10
2018-07-29T19:16:25.898Z,2.90
2018-07-29T19:18:54.960Z,2.70
2018-07-29T19:21:23.918Z,2.73
2018-07-29T19:23:52.970Z,2.90
2018-07-29T19:26:22.102Z,3.20
2018-07-29T19:28:51.133Z,3.17
2018-07-29T19:31:20.128Z,3.00
2018-07-29T19:33:49.172Z,2.70
2018-07-29T19:36:18.752Z,2.70
2018-07-29T19:38:47.800Z,2.77
2018-07-29T19:41:16.810Z,3.00
2018-07-29T19:43:45.802Z,3.00
2018-07-29T19:46:14.836Z,2.70
2018-07-29T19:48:43.808Z,2.77
2018-07-29T19:51:12.819Z,2.87
2018-07-29T19:53:41.817Z,2.73
2018-07-29T19:56:10.925Z,3.00
2018-07-29T19:58:39.925Z,2.50
2018-07-29T20:01:09.031Z,2.70
2018-07-29T20:03:38.089Z,2.60
2018-07-29T20:06:07.217Z,2.60
2018-07-29T20:08:36.254Z,2.37
2018-07-29T20:11:05.385Z,2.70
2018-07-29T20:13:34.379Z,2.50
2018-07-29T20:16:04.965Z,2.60
2018-07-29T20:18:34.022Z,2.60
2018-07-29T20:21:03.017Z,2.50
2018-07-29T20:23:32.052Z,2.20
2018-07-29T20:26:01.116Z,2.70
2018-07-29T20:28:30.192Z,2.60
2018-07-29T20:30:59.185Z,2.60
2018-07-29T20:33:27.902Z,2.57
2018-07-29T20:35:56.841Z,2.40
2018-07-29T20:38:25.935Z,2.50
2018-07-29T20:40:54.967Z,2.40
2018-07-29T20:43:23.945Z,2.53
2018-07-29T20:45:52.917Z,2.70
2018-07-29T20:48:21.925Z,2.80
2018-07-29T20:50:50.954Z,2.70
2018-07-29T20:53:20.781Z,2.70
2018-07-29T20:55:49.939Z,2.80
2018-07-29T20:58:19.021Z,2.50
2018-07-29T21:00:48.013Z,2.40
2018-07-29T21:03:16.767Z,2.60
2018-07-29T21:05:45.645Z,2.30
2018-07-29T21:08:14.725Z,2.70
2018-07-29T21:10:43.725Z,2.47
2018-07-29T21:13:12.981Z,2.60
2018-07-29T21:15:41.987Z,2.47
2018-07-29T21:18:11.029Z,2.20
2018-07-29T21:20:40.023Z,2.60
2018-07-29T21:23:08.996Z,2.37
2018-07-29T21:25:38.048Z,2.50
2018-07-29T21:28:07.519Z,2.53
2018-07-29T21:30:36.495Z,2.70
2018-07-29T21:33:05.558Z,2.20
2018-07-29T21:35:34.582Z,2.60
2018-07-29T21:38:03.627Z,2.87
2018-07-29T21:40:32.701Z,2.30
2018-07-29T21:43:01.665Z,2.30
2018-07-29T21:45:30.712Z,2.53
2018-07-29T21:47:59.693Z,2.73
2018-07-29T21:50:28.750Z,2.80
2018-07-29T21:52:57.761Z,2.73
2018-07-29T21:55:26.821Z,2.47
2018-07-29T21:57:55.828Z,2.40
2018-07-29T22:00:25.318Z,2.70
2018-07-29T22:02:54.311Z,2.10
2018-07-29T22:05:23.305Z,2.27
2018-07-29T22:07:52.405Z,2.40
2018-07-29T22:10:21.418Z,2.40
2018-07-29T22:12:50.451Z,2.60
2018-07-29T22:15:19.445Z,2.50
2018-07-29T22:17:48.471Z,2.50
2018-07-29T22:20:17.450Z,2.70
2018-07-29T22:22:46.410Z,2.63
2018-07-29T22:25:17.316Z,2.40
2018-07-29T22:27:46.343Z,2.40
2018-07-29T22:31:23.548Z,2.50
2018-07-29T22:33:52.566Z,2.43
2018-07-29T22:36:21.587Z,2.40
2018-07-29T22:38:50.641Z,2.50
2018-07-29T22:41:19.666Z,2.37
2018-07-29T22:43:48.586Z,2.80
2018-07-29T22:46:17.606Z,2.50
2018-07-29T22:48:46.610Z,2.60
2018-07-29T22:51:15.842Z,2.63
2018-07-29T22:53:44.796Z,2.70
2018-07-29T22:56:13.628Z,2.60
2018-07-29T22:58:42.552Z,2.43
2018-07-29T23:01:11.802Z,2.47
2018-07-29T23:03:40.840Z,2.60
2018-07-29T23:06:09.816Z,2.80
2018-07-29T23:08:38.853Z,2.60
2018-07-29T23:11:07.854Z,2.30
2018-07-29T23:13:36.858Z,2.73
2018-07-29T23:16:05.818Z,2.57
2018-07-29T23:18:34.831Z,2.80
2018-07-29T23:21:03.524Z,2.70
2018-07-29T23:23:32.409Z,2.70
2018-07-29T23:26:01.406Z,2.60
2018-07-29T23:28:30.420Z,2.70
2018-07-29T23:30:59.401Z,2.33
2018-07-29T23:33:28.406Z,2.30
2018-07-29T23:35:57.417Z,2.70
2018-07-29T23:38:26.391Z,2.13
2018-07-29T23:40:55.389Z,2.67
2018-07-29T23:43:24.349Z,2.50
2018-07-29T23:45:53.353Z,2.70
2018-07-29T23:48:22.329Z,2.60
2018-07-29T23:50:51.338Z,2.40
2018-07-29T23:53:20.317Z,2.60
2018-07-29T23:55:49.307Z,2.70
2018-07-29T23:58:18.305Z,2.80
